Time;durP1;ratioP1;P1;durP2;ratioP2;P2;SDS_P1;SDS_P2;PMS_P1;PMS_P2;Temp;Humidity;BMP_temperature;BMP_pressure;BME280_temperature;BME280_humidity;BME280_pressure;Samples;Min_cycle;Max_cycle;Signal;HPM_P1;HPM_P2
2021/04/06 00:01:59;;;;;;;10.90;2.35;;;1.40;93.80;;;;;;4978399;28;20057;-75
2021/04/06 00:04:33;;;;;;;15.85;2.67;;;1.40;93.90;;;;;;4983283;28;20437;-75
2021/04/06 00:07:04;;;;;;;12.40;2.72;;;1.40;94.20;;;;;;4980988;28;20055;-75
2021/04/06 00:09:33;;;;;;;19.23;4.28;;;1.50;93.80;;;;;;4980025;28;20050;-76
2021/04/06 00:12:02;;;;;;;14.98;2.95;;;1.50;93.50;;;;;;4978587;28;20065;-75
2021/04/06 00:14:30;;;;;;;21.90;5.35;;;1.60;93.30;;;;;;4978762;28;20055;-75
2021/04/06 00:17:00;;;;;;;22.60;3.33;;;1.70;93.00;;;;;;4978353;28;20062;-74
2021/04/06 00:19:31;;;;;;;24.50;3.90;;;1.70;92.80;;;;;;4978103;28;20054;-74
2021/04/06 00:22:00;;;;;;;16.50;3.30;;;1.80;92.90;;;;;;4992786;28;20053;-75
2021/04/06 00:24:29;;;;;;;26.42;6.05;;;1.80;92.70;;;;;;4993954;28;20429;-75
2021/04/06 00:27:10;;;;;;;23.02;5.00;;;1.90;92.70;;;;;;4978328;28;20061;-75
2021/04/06 00:29:37;;;;;;;17.15;5.07;;;1.90;92.90;;;;;;4981146;28;20314;-75
2021/04/06 00:32:08;;;;;;;19.85;3.08;;;1.90;92.60;;;;;;4978119;28;20258;-75
2021/04/06 00:34:36;;;;;;;18.17;3.60;;;1.90;92.70;;;;;;4978572;28;20448;-75
2021/04/06 00:37:06;;;;;;;17.33;3.45;;;1.90;92.80;;;;;;4978239;28;20054;-75
2021/04/06 00:39:36;;;;;;;26.35;4.20;;;2.00;92.70;;;;;;4977736;28;20057;-74
2021/04/06 00:42:09;;;;;;;20.45;3.63;;;2.00;92.50;;;;;;4978176;28;20066;-75
2021/04/06 00:44:43;;;;;;;18.98;3.20;;;1.90;92.50;;;;;;4977989;28;20054;-75
2021/04/06 00:47:14;;;;;;;17.42;2.70;;;1.90;92.60;;;;;;4994945;28;20054;-75
2021/04/06 00:49:42;;;;;;;16.50;3.17;;;1.80;92.60;;;;;;5004560;28;20050;-75
2021/04/06 00:52:11;;;;;;;18.35;3.67;;;1.80;92.70;;;;;;4999620;28;20411;-75
2021/04/06 00:54:40;;;;;;;21.25;4.05;;;1.80;92.80;;;;;;4997589;28;20058;-75
2021/04/06 00:57:07;;;;;;;14.68;3.63;;;1.90;92.60;;;;;;4998086;28;20061;-74
2021/04/06 00:59:33;;;;;;;13.38;2.47;;;1.80;92.50;;;;;;4996130;28;20046;-74
2021/04/06 01:02:03;;;;;;;13.43;2.55;;;1.70;92.60;;;;;;4997670;28;20042;-75
2021/04/06 01:04:37;;;;;;;17.35;3.28;;;1.60;92.60;;;;;;4996876;28;20050;-74
2021/04/06 01:07:16;;;;;;;13.15;2.88;;;1.60;92.50;;;;;;4992665;28;20065;-74
2021/04/06 01:09:48;;;;;;;27.55;3.88;;;1.60;92.50;;;;;;4977356;28;20038;-74
2021/04/06 01:12:23;;;;;;;22.83;3.30;;;1.70;92.50;;;;;;4976951;28;20126;-74
2021/04/06 01:14:50;;;;;;;20.48;4.72;;;1.70;92.60;;;;;;4977602;28;20054;-74
2021/04/06 01:17:23;;;;;;;22.20;4.05;;;1.80;91.90;;;;;;4977388;28;20053;-75
2021/04/06 01:19:49;;;;;;;21.67;4.38;;;1.80;91.80;;;;;;4980350;28;20421;-73
2021/04/06 01:22:16;;;;;;;21.40;3.95;;;1.90;91.50;;;;;;4992249;28;20351;-76
2021/04/06 01:24:44;;;;;;;27.45;4.57;;;1.90;91.20;;;;;;4998820;28;20045;-74
2021/04/06 01:27:13;;;;;;;31.10;5.22;;;2.00;90.30;;;;;;4997083;28;20050;-74
2021/04/06 01:30:00;;;;;;;22.73;3.85;;;2.10;89.70;;;;;;4996565;28;20047;-74
2021/04/06 01:32:28;;;;;;;36.42;6.18;;;2.30;88.90;;;;;;5001325;28;20057;-74
2021/04/06 01:34:55;;;;;;;30.52;5.35;;;2.30;89.30;;;;;;4998057;28;20053;-74
2021/04/06 01:37:24;;;;;;;32.53;7.70;;;2.30;89.30;;;;;;4997126;28;20046;-74
2021/04/06 01:39:53;;;;;;;35.13;5.65;;;2.30;89.40;;;;;;4986076;28;20047;-74
2021/04/06 01:42:22;;;;;;;25.35;4.75;;;2.40;89.50;;;;;;4977464;28;20053;-74
2021/04/06 01:44:51;;;;;;;18.65;3.75;;;2.40;87.10;;;;;;4977177;28;20429;-74
2021/04/06 01:47:18;;;;;;;15.85;3.05;;;2.50;82.30;;;;;;4976736;28;20051;-74
2021/04/06 01:49:45;;;;;;;24.13;2.90;;;2.60;77.50;;;;;;4977774;28;20421;-74
2021/04/06 01:52:12;;;;;;;13.73;2.80;;;2.50;78.40;;;;;;4976138;28;20050;-74
2021/04/06 01:54:40;;;;;;;17.92;3.35;;;2.50;79.90;;;;;;4976404;28;20346;-74
2021/04/06 01:57:14;;;;;;;13.30;2.95;;;2.60;76.80;;;;;;4978422;28;20057;-74
2021/04/06 01:59:45;;;;;;;20.75;3.00;;;2.60;79.20;;;;;;4977213;28;20059;-73
2021/04/06 02:02:12;;;;;;;21.10;3.35;;;2.50;80.80;;;;;;4993052;28;20046;-75
2021/04/06 02:04:42;;;;;;;25.52;3.22;;;2.40;82.20;;;;;;4995521;28;20062;-75
2021/04/06 02:07:12;;;;;;;22.48;4.18;;;2.40;83.20;;;;;;4996598;28;20050;-75
2021/04/06 02:09:39;;;;;;;28.25;4.00;;;2.30;83.60;;;;;;4984246;28;20050;-75
2021/04/06 02:12:06;;;;;;;20.42;3.30;;;2.20;84.10;;;;;;4975913;28;20046;-75
2021/04/06 02:14:33;;;;;;;20.98;3.78;;;2.20;84.40;;;;;;4987284;28;20027;-74
2021/04/06 02:17:06;;;;;;;30.55;4.30;;;2.20;84.60;;;;;;4983856;28;20046;-75
2021/04/06 02:19:41;;;;;;;21.38;3.88;;;2.20;85.30;;;;;;4979623;28;20062;-76
2021/04/06 02:22:11;;;;;;;23.35;5.03;;;2.20;85.10;;;;;;4977628;28;20054;-75
2021/04/06 02:24:47;;;;;;;21.05;4.57;;;2.20;85.80;;;;;;4977460;28;20047;-74
2021/04/06 02:27:27;;;;;;;26.17;4.53;;;2.20;86.30;;;;;;4977176;28;20437;-74
2021/04/06 02:29:55;;;;;;;19.00;4.13;;;2.20;86.00;;;;;;4977215;28;20349;-74
2021/04/06 02:32:27;;;;;;;25.63;3.55;;;2.20;86.10;;;;;;4976825;28;20043;-75
2021/04/06 02:34:55;;;;;;;26.75;4.35;;;2.10;86.20;;;;;;4976427;28;20429;-75
2021/04/06 02:37:26;;;;;;;31.00;4.50;;;2.20;85.40;;;;;;4976811;28;20055;-76
2021/04/06 02:39:55;;;;;;;20.80;4.68;;;2.20;85.20;;;;;;4976173;28;20038;-76
2021/04/06 02:42:22;;;;;;;26.33;4.88;;;2.10;84.90;;;;;;4976466;28;20047;-76
2021/04/06 02:44:53;;;;;;;18.55;3.38;;;2.00;85.20;;;;;;4980458;28;20077;-75
2021/04/06 02:47:20;;;;;;;20.95;3.30;;;2.00;84.90;;;;;;4980338;28;20049;-76
2021/04/06 02:49:46;;;;;;;21.10;3.60;;;2.00;85.10;;;;;;4980656;28;20421;-76
2021/04/06 02:52:14;;;;;;;27.52;5.55;;;2.00;84.60;;;;;;4980382;28;20050;-76
2021/04/06 02:54:41;;;;;;;27.80;3.90;;;2.10;84.80;;;;;;4980201;28;20046;-75
2021/04/06 02:57:19;;;;;;;15.40;2.90;;;2.00;85.40;;;;;;4979938;28;20053;-76
2021/04/06 02:59:46;;;;;;;19.63;3.78;;;2.10;85.20;;;;;;4987584;28;20051;-76
2021/04/06 03:02:12;;;;;;;31.77;4.50;;;2.10;85.00;;;;;;4981719;28;20361;-75
2021/04/06 03:04:41;;;;;;;26.40;4.38;;;2.10;85.70;;;;;;4982946;28;20050;-75
2021/04/06 03:07:20;;;;;;;24.00;4.65;;;2.00;85.60;;;;;;4990051;28;20053;-75
2021/04/06 03:09:52;;;;;;;24.25;5.63;;;2.00;86.20;;;;;;4988924;28;20064;-76
2021/04/06 03:12:20;;;;;;;26.92;5.00;;;2.00;86.40;;;;;;4978176;28;20352;-76
2021/04/06 03:14:48;;;;;;;26.42;4.93;;;2.00;86.70;;;;;;4980186;28;20306;-75
2021/04/06 03:17:15;;;;;;;22.45;3.97;;;2.00;86.70;;;;;;4979793;28;20401;-75
2021/04/06 03:19:43;;;;;;;25.75;4.53;;;2.00;85.20;;;;;;4979911;28;20054;-75
2021/04/06 03:22:12;;;;;;;22.52;4.10;;;2.30;84.80;;;;;;4979871;28;20050;-75
2021/04/06 03:24:40;;;;;;;22.20;4.15;;;2.00;84.00;;;;;;4979598;28;20321;-75
2021/04/06 03:27:07;;;;;;;24.10;5.32;;;2.00;83.70;;;;;;4979622;28;20069;-75
2021/04/06 03:29:35;;;;;;;19.00;4.25;;;2.10;83.90;;;;;;4978489;28;20058;-75
2021/04/06 03:32:03;;;;;;;25.25;4.68;;;2.10;83.60;;;;;;4979163;28;20058;-75
2021/04/06 03:34:35;;;;;;;23.83;3.72;;;2.10;84.00;;;;;;4979533;28;20051;-75
2021/04/06 03:37:04;;;;;;;19.27;3.28;;;2.10;84.20;;;;;;4979077;28;20146;-76
2021/04/06 03:39:32;;;;;;;20.75;5.00;;;2.00;84.40;;;;;;4979535;28;20054;-75
2021/04/06 03:41:59;;;;;;;13.27;3.58;;;2.00;84.70;;;;;;4982411;28;20055;-75
2021/04/06 03:44:28;;;;;;;21.60;3.97;;;1.90;84.60;;;;;;4985305;28;20528;-75
2021/04/06 03:47:00;;;;;;;16.85;3.92;;;1.90;84.80;;;;;;4980721;28;20440;-77
2021/04/06 03:49:28;;;;;;;12.27;3.15;;;1.90;85.10;;;;;;4979530;28;20059;-76
2021/04/06 03:52:07;;;;;;;23.80;4.75;;;1.80;85.70;;;;;;4979714;28;20061;-77
2021/04/06 03:54:39;;;;;;;18.65;3.90;;;1.80;86.10;;;;;;4978566;28;20051;-77
2021/04/06 03:57:53;;;;;;;18.88;3.80;;;1.80;85.70;;;;;;4979057;28;20043;-76
2021/04/06 04:00:19;;;;;;;18.35;4.63;;;1.70;85.70;;;;;;4981838;28;20082;-76
2021/04/06 04:02:46;;;;;;;13.32;3.22;;;1.80;85.10;;;;;;4980368;28;20047;-77
2021/04/06 04:05:13;;;;;;;17.85;3.67;;;1.70;85.00;;;;;;4978855;28;20046;-77
2021/04/06 04:07:39;;;;;;;16.10;3.55;;;1.70;85.00;;;;;;4979068;28;20067;-77
2021/04/06 04:10:08;;;;;;;18.85;3.17;;;1.70;85.20;;;;;;4978503;28;20038;-77
2021/04/06 04:12:35;;;;;;;14.88;4.07;;;1.70;85.20;;;;;;4978664;28;20059;-77
2021/04/06 04:15:01;;;;;;;19.13;2.85;;;1.70;85.30;;;;;;4978718;28;20299;-77
2021/04/06 04:17:28;;;;;;;18.00;3.13;;;1.60;85.30;;;;;;4977205;28;20050;-76
2021/04/06 04:19:54;;;;;;;21.85;4.03;;;1.60;85.30;;;;;;4978835;28;20050;-76
2021/04/06 04:22:20;;;;;;;25.88;4.00;;;1.60;85.10;;;;;;4978377;28;20055;-76
2021/04/06 04:24:46;;;;;;;25.50;4.38;;;1.70;85.00;;;;;;4978539;28;20051;-76
2021/04/06 04:27:13;;;;;;;21.20;3.45;;;1.70;84.60;;;;;;4985148;28;20047;-76
2021/04/06 04:29:39;;;;;;;18.35;3.42;;;1.90;85.30;;;;;;4982767;28;20070;-77
2021/04/06 04:32:13;;;;;;;13.90;2.92;;;1.60;84.80;;;;;;4980882;28;20054;-76
2021/04/06 04:34:40;;;;;;;22.27;3.33;;;1.70;85.10;;;;;;4979479;28;20058;-76
2021/04/06 04:37:06;;;;;;;17.77;2.90;;;1.70;85.30;;;;;;4978717;28;20061;-76
2021/04/06 04:39:33;;;;;;;14.55;3.30;;;1.80;85.70;;;;;;4977566;28;20051;-75
2021/04/06 04:41:59;;;;;;;12.38;2.90;;;1.90;87.20;;;;;;4978814;28;20349;-76
2021/04/06 04:44:25;;;;;;;11.00;3.28;;;1.80;89.60;;;;;;4978229;28;20054;-76
2021/04/06 04:46:51;;;;;;;15.77;2.58;;;1.70;90.30;;;;;;4978333;28;20045;-75
2021/04/06 04:49:17;;;;;;;22.30;4.63;;;1.70;90.20;;;;;;4978333;28;20340;-76
2021/04/06 04:51:43;;;;;;;15.63;3.25;;;1.70;90.50;;;;;;4980823;28;20057;-76
2021/04/06 04:54:10;;;;;;;14.48;3.53;;;1.60;90.40;;;;;;4991301;28;20119;-75
2021/04/06 04:56:36;;;;;;;16.65;3.30;;;1.60;90.30;;;;;;4977358;28;20047;-76
2021/04/06 04:59:02;;;;;;;20.05;3.20;;;1.60;90.40;;;;;;4977503;28;20055;-76
2021/04/06 05:01:28;;;;;;;25.75;3.80;;;1.60;90.30;;;;;;4978142;28;20047;-76
2021/04/06 05:03:54;;;;;;;19.27;3.67;;;1.70;90.50;;;;;;4977717;28;20046;-76
2021/04/06 05:06:21;;;;;;;16.17;2.80;;;1.60;90.20;;;;;;4977449;28;20043;-76
2021/04/06 05:08:47;;;;;;;27.08;3.97;;;1.70;90.00;;;;;;4978026;28;20054;-76
2021/04/06 05:11:13;;;;;;;20.80;4.95;;;1.60;90.60;;;;;;4986346;28;20607;-75
2021/04/06 05:13:40;;;;;;;20.42;3.70;;;1.70;90.40;;;;;;4979378;28;20070;-77
2021/04/06 05:16:06;;;;;;;24.80;4.80;;;1.80;90.80;;;;;;4962806;28;20065;-77
2021/04/06 05:18:32;;;;;;;26.27;4.05;;;1.80;90.40;;;;;;4978334;28;20038;-76
2021/04/06 05:20:58;;;;;;;20.10;4.47;;;1.90;90.90;;;;;;4978872;28;20053;-76
2021/04/06 05:23:25;;;;;;;24.27;3.25;;;2.00;90.70;;;;;;4978318;28;20054;-76
2021/04/06 05:25:51;;;;;;;18.20;3.72;;;2.00;90.30;;;;;;4977909;28;20050;-75
2021/04/06 05:28:17;;;;;;;17.60;2.55;;;2.10;90.40;;;;;;4977446;28;20051;-76
2021/04/06 05:30:43;;;;;;;13.32;2.83;;;2.10;90.10;;;;;;4976208;28;20070;-75
2021/04/06 05:33:09;;;;;;;14.77;2.67;;;2.20;90.00;;;;;;4977150;28;20047;-75
2021/04/06 05:35:39;;;;;;;20.80;4.03;;;2.20;89.80;;;;;;4977370;28;20047;-75
2021/04/06 05:38:05;;;;;;;13.98;2.83;;;2.20;89.50;;;;;;4977427;28;20050;-76
2021/04/06 05:40:31;;;;;;;14.45;3.63;;;2.30;88.20;;;;;;4977150;28;20043;-76
2021/04/06 05:42:59;;;;;;;9.32;1.95;;;2.30;87.40;;;;;;4978067;28;20053;-78
2021/04/06 05:45:25;;;;;;;9.63;2.10;;;2.30;85.80;;;;;;4981166;28;20058;-75
2021/04/06 05:47:55;;;;;;;16.35;2.83;;;2.40;84.10;;;;;;4992191;28;20057;-76
2021/04/06 05:50:21;;;;;;;9.57;2.10;;;2.40;83.70;;;;;;4977264;28;20361;-76
2021/04/06 05:52:50;;;;;;;17.13;2.70;;;2.50;83.60;;;;;;4977656;28;20043;-76
2021/04/06 05:55:17;;;;;;;16.65;3.13;;;2.50;83.30;;;;;;4983142;28;20421;-77
2021/04/06 05:57:49;;;;;;;13.13;3.78;;;2.60;83.50;;;;;;4977884;28;20049;-77
2021/04/06 06:00:16;;;;;;;12.38;3.60;;;2.60;83.90;;;;;;4978368;28;20043;-77
2021/04/06 06:02:42;;;;;;;11.00;2.40;;;2.60;84.50;;;;;;4978356;28;20050;-77
2021/04/06 06:05:09;;;;;;;11.57;2.50;;;2.50;84.30;;;;;;4977755;28;20440;-77
2021/04/06 06:07:36;;;;;;;9.52;1.52;;;2.40;84.30;;;;;;4977451;28;20215;-77
2021/04/06 06:10:25;;;;;;;15.43;3.83;;;2.40;83.90;;;;;;4977758;28;20050;-78
2021/04/06 06:12:53;;;;;;;18.13;4.22;;;2.20;83.70;;;;;;4977313;28;20055;-78
2021/04/06 06:15:19;;;;;;;11.88;3.25;;;2.10;84.20;;;;;;4977875;28;20047;-77
2021/04/06 06:18:03;;;;;;;13.23;3.22;;;2.10;84.30;;;;;;4976339;28;20053;-77
2021/04/06 06:20:29;;;;;;;14.88;2.50;;;2.10;84.90;;;;;;4977048;28;20058;-77
2021/04/06 06:22:55;;;;;;;8.95;2.10;;;2.00;84.80;;;;;;4959155;28;20054;-77
2021/04/06 06:25:24;;;;;;;13.50;2.58;;;2.00;85.00;;;;;;4976117;28;20042;-78
2021/04/06 06:28:11;;;;;;;10.18;2.60;;;2.00;85.30;;;;;;4960442;28;20424;-77
2021/04/06 06:30:38;;;;;;;16.38;3.05;;;2.10;85.50;;;;;;4975261;28;20042;-76
2021/04/06 06:33:20;;;;;;;9.88;2.50;;;2.20;85.60;;;;;;4976828;28;20038;-77
2021/04/06 06:35:57;;;;;;;11.25;2.50;;;2.40;84.20;;;;;;4977374;28;20054;-77
2021/04/06 06:38:29;;;;;;;22.77;3.72;;;2.60;83.20;;;;;;4979948;28;20058;-76
2021/04/06 06:41:11;;;;;;;13.70;2.58;;;2.80;82.40;;;;;;4986960;28;20046;-75
2021/04/06 06:43:42;;;;;;;15.10;2.60;;;2.80;82.60;;;;;;4980698;28;20046;-78
2021/04/06 06:46:31;;;;;;;17.10;3.50;;;2.90;82.30;;;;;;4977413;28;20055;-76
2021/04/06 06:49:03;;;;;;;21.42;3.22;;;2.90;82.30;;;;;;4977144;28;20046;-76
2021/04/06 06:51:39;;;;;;;15.75;2.75;;;3.00;82.40;;;;;;4976751;28;20433;-77
2021/04/06 06:54:05;;;;;;;13.77;2.65;;;2.90;83.50;;;;;;4994757;28;20050;-77
2021/04/06 06:56:39;;;;;;;13.20;1.98;;;2.50;86.20;;;;;;4996516;28;20057;-77
2021/04/06 06:59:07;;;;;;;9.57;1.75;;;2.30;86.60;;;;;;4994872;28;20057;-77
2021/04/06 07:01:35;;;;;;;4.72;1.70;;;2.20;88.10;;;;;;4996009;28;20045;-77
2021/04/06 07:04:05;;;;;;;7.32;1.80;;;2.20;88.50;;;;;;4995450;28;20042;-77
2021/04/06 07:06:43;;;;;;;8.18;2.20;;;1.90;89.20;;;;;;4995130;28;20049;-77
2021/04/06 07:09:26;;;;;;;8.75;1.58;;;1.90;90.00;;;;;;4995854;28;20321;-77
2021/04/06 07:11:58;;;;;;;8.00;1.60;;;1.90;90.00;;;;;;4995644;28;20045;-77
2021/04/06 07:14:28;;;;;;;6.80;1.77;;;1.90;89.80;;;;;;4994878;28;20341;-77
2021/04/06 07:16:56;;;;;;;11.57;2.70;;;2.00;89.70;;;;;;4995757;28;20042;-78
2021/04/06 07:19:23;;;;;;;10.38;2.15;;;2.00;89.60;;;;;;4995759;28;20045;-77
2021/04/06 07:21:53;;;;;;;13.25;2.67;;;2.10;89.60;;;;;;4999779;28;20057;-77
2021/04/06 07:24:23;;;;;;;15.27;2.70;;;2.40;89.50;;;;;;5002718;28;20030;-77
2021/04/06 07:26:51;;;;;;;8.23;2.75;;;2.60;88.80;;;;;;4997233;28;20038;-77
2021/04/06 07:29:19;;;;;;;10.55;2.40;;;2.80;88.00;;;;;;4996423;28;20042;-77
2021/04/06 07:31:46;;;;;;;8.05;2.47;;;3.00;87.60;;;;;;4999599;28;20043;-76
2021/04/06 07:34:18;;;;;;;11.63;2.58;;;3.20;86.80;;;;;;5006559;28;20042;-77
2021/04/06 07:36:45;;;;;;;10.02;1.90;;;3.40;85.10;;;;;;4984616;28;20348;-77
2021/04/06 07:39:13;;;;;;;7.90;1.92;;;3.60;83.40;;;;;;4996791;28;20053;-76
2021/04/06 07:42:06;;;;;;;7.18;2.13;;;3.70;82.60;;;;;;4998079;28;20443;-77
2021/04/06 07:44:38;;;;;;;5.72;1.60;;;3.80;78.70;;;;;;4997656;28;20341;-77
2021/04/06 07:47:05;;;;;;;5.70;1.52;;;4.10;78.40;;;;;;4998470;28;20401;-77
2021/04/06 07:49:37;;;;;;;9.77;2.95;;;4.10;73.50;;;;;;4998141;28;20042;-77
2021/04/06 07:52:16;;;;;;;11.13;2.10;;;4.20;75.50;;;;;;4998199;28;20045;-77
2021/04/06 07:54:48;;;;;;;16.38;2.08;;;4.30;75.90;;;;;;4998071;28;20049;-77
2021/04/06 07:57:16;;;;;;;11.75;2.33;;;4.10;75.10;;;;;;4998403;28;20062;-76
2021/04/06 08:00:35;;;;;;;10.27;1.92;;;4.50;75.90;;;;;;4980536;28;20073;-76
2021/04/06 08:03:01;;;;;;;9.98;2.35;;;4.50;76.70;;;;;;4996400;28;20046;-77
2021/04/06 08:05:28;;;;;;;18.67;2.63;;;4.40;76.80;;;;;;4995615;28;20090;-76
2021/04/06 08:08:33;;;;;;;9.35;1.92;;;4.60;77.50;;;;;;5002457;28;20054;-77
2021/04/06 08:11:00;;;;;;;8.57;1.75;;;4.70;76.70;;;;;;4995706;28;20047;-77
2021/04/06 08:13:27;;;;;;;10.55;2.78;;;4.90;77.60;;;;;;4995581;28;20380;-77
2021/04/06 08:16:16;;;;;;;12.40;4.43;;;4.80;77.60;;;;;;4995652;28;20393;-76
2021/04/06 08:18:54;;;;;;;9.70;1.88;;;4.80;77.80;;;;;;4994348;28;20061;-77
2021/04/06 08:21:24;;;;;;;12.15;2.58;;;4.80;78.50;;;;;;4993958;28;20439;-76
2021/04/06 08:23:52;;;;;;;9.90;2.05;;;5.30;77.70;;;;;;4978039;28;20046;-77
2021/04/06 08:26:35;;;;;;;11.02;1.80;;;5.40;77.80;;;;;;4978271;28;20090;-77
2021/04/06 08:29:23;;;;;;;7.45;1.80;;;4.80;78.70;;;;;;5009087;28;20061;-77
2021/04/06 08:32:16;;;;;;;6.80;1.50;;;4.40;81.20;;;;;;4978976;28;20460;-77
2021/04/06 08:34:51;;;;;;;9.18;2.25;;;4.30;82.00;;;;;;4960155;28;20046;-77
2021/04/06 08:37:19;;;;;;;;;;;4.60;82.30;;;;;;4994953;28;20053;-78
2021/04/06 08:39:46;;;;;;;10.98;2.05;;;4.70;82.00;;;;;;4996711;28;19918;-77
2021/04/06 08:42:16;;;;;;;8.93;2.50;;;4.80;81.80;;;;;;4995379;28;20042;-77
2021/04/06 08:44:44;;;;;;;12.70;2.50;;;4.90;80.60;;;;;;4980275;28;20428;-77
2021/04/06 08:47:47;;;;;;;7.15;2.00;;;5.20;80.90;;;;;;4997775;28;20045;-77
2021/04/06 08:50:31;;;;;;;10.73;3.25;;;5.30;78.00;;;;;;4996474;28;20050;-78
2021/04/06 08:52:57;;;;;;;8.93;2.00;;;5.20;78.00;;;;;;4973916;28;20046;-78
2021/04/06 08:55:26;;;;;;;14.13;2.97;;;5.30;79.20;;;;;;4997697;28;20050;-78
2021/04/06 08:57:59;;;;;;;9.20;1.88;;;5.50;77.70;;;;;;4996645;28;20049;-78
2021/04/06 09:00:26;;;;;;;13.10;2.22;;;5.70;78.10;;;;;;4997418;28;20057;-77
2021/04/06 09:03:06;;;;;;;13.90;2.05;;;5.70;76.70;;;;;;4997738;28;20069;-77
2021/04/06 09:05:33;;;;;;;13.20;2.78;;;5.50;77.60;;;;;;4997179;28;20038;-76
2021/04/06 09:07:59;;;;;;;12.40;2.00;;;5.50;76.50;;;;;;4997073;28;20441;-76
2021/04/06 09:10:40;;;;;;;13.35;2.13;;;5.80;76.90;;;;;;5003403;28;20038;-77
2021/04/06 09:13:07;;;;;;;11.10;2.40;;;6.00;75.70;;;;;;4996635;28;20054;-77
2021/04/06 09:15:36;;;;;;;11.02;2.00;;;6.10;73.60;;;;;;4996889;28;20053;-77
2021/04/06 09:25:16;;;;;;;15.88;3.28;;;6.10;67.70;;;;;;5000063;28;20099;-77
2021/04/06 09:27:57;;;;;;;19.25;3.40;;;6.50;73.00;;;;;;4997713;28;20306;-78
2021/04/06 09:30:33;;;;;;;18.23;3.85;;;6.20;73.60;;;;;;4997330;28;20042;-78
2021/04/06 09:33:01;;;;;;;17.60;4.03;;;6.20;75.30;;;;;;4995578;28;20062;-75
2021/04/06 09:35:28;;;;;;;17.23;3.15;;;6.50;76.10;;;;;;4998911;28;20042;-77
2021/04/06 09:37:55;;;;;;;16.13;2.90;;;6.30;76.40;;;;;;5002986;28;20318;-76
2021/04/06 09:40:32;;;;;;;15.23;2.83;;;6.90;73.40;;;;;;4996800;28;20050;-77
2021/04/06 09:42:59;;;;;;;15.27;3.22;;;6.90;66.30;;;;;;4996583;28;20057;-77
2021/04/06 09:45:27;;;;;;;17.58;2.90;;;6.50;71.00;;;;;;5000154;28;20038;-77
2021/04/06 09:47:54;;;;;;;15.25;3.45;;;6.20;72.20;;;;;;4996071;28;20042;-82
2021/04/06 09:50:22;;;;;;;14.70;2.60;;;6.50;74.30;;;;;;4996575;28;20061;-81
2021/04/06 09:52:48;;;;;;;17.83;2.58;;;6.40;74.90;;;;;;4994501;28;20061;-80
2021/04/06 09:55:16;;;;;;;14.63;3.63;;;6.20;72.60;;;;;;4996396;28;20058;-79
2021/04/06 09:57:46;;;;;;;14.48;2.42;;;6.00;70.60;;;;;;4995821;28;20066;-78
2021/04/06 10:00:13;;;;;;;14.02;2.42;;;6.10;72.50;;;;;;4995792;28;20412;-79
2021/04/06 10:02:39;;;;;;;12.23;2.50;;;6.20;71.30;;;;;;4995588;28;20054;-81
2021/04/06 10:05:20;;;;;;;13.02;3.08;;;6.10;67.30;;;;;;4996366;28;20046;-79
2021/04/06 10:07:48;;;;;;;12.40;2.80;;;5.70;69.80;;;;;;4996744;28;20053;-78
2021/04/06 10:10:34;;;;;;;17.13;2.75;;;5.30;71.70;;;;;;4997592;28;20050;-78
2021/04/06 10:13:03;;;;;;;18.02;3.38;;;5.60;72.30;;;;;;4995792;28;20429;-78
2021/04/06 10:15:32;;;;;;;16.08;2.72;;;6.40;73.30;;;;;;5001405;28;20447;-78
2021/04/06 10:18:13;;;;;;;12.57;2.88;;;6.70;70.60;;;;;;4997447;28;20042;-77
2021/04/06 10:20:45;;;;;;;17.20;3.13;;;6.70;66.30;;;;;;5004690;28;20054;-77
2021/04/06 10:23:13;;;;;;;20.95;2.95;;;6.70;68.00;;;;;;4996681;28;20057;-75
2021/04/06 10:25:54;;;;;;;13.82;2.55;;;6.50;70.40;;;;;;4922333;29;20055;-76
2021/04/06 10:28:35;;;;;;;18.60;4.00;;;6.90;71.90;;;;;;4935205;29;20717;-77
2021/04/06 10:31:06;;;;;;;19.55;3.80;;;7.40;71.40;;;;;;4934864;29;20047;-76
2021/04/06 10:33:41;;;;;;;12.05;2.97;;;7.40;69.70;;;;;;4935690;29;20052;-76
2021/04/06 10:36:43;;;;;;;17.27;2.80;;;7.10;68.40;;;;;;4934607;29;20052;-76
2021/04/06 10:39:40;;;;;;;18.50;3.17;;;7.20;67.90;;;;;;4878473;29;20064;-77
2021/04/06 10:42:42;;;;;;;15.77;3.97;;;6.80;66.00;;;;;;4878997;29;20099;-75
2021/04/06 10:45:23;;;;;;;17.58;3.42;;;6.60;67.40;;;;;;4879103;29;20064;-76
2021/04/06 10:48:03;;;;;;;14.50;3.20;;;6.80;68.10;;;;;;4848306;29;20061;-75
2021/04/06 10:50:33;;;;;;;17.40;2.40;;;7.40;66.00;;;;;;4876560;29;20463;-75
2021/04/06 10:53:19;;;;;;;12.77;3.08;;;8.30;65.50;;;;;;4878865;29;20172;-76
2021/04/06 10:55:57;;;;;;;13.70;2.22;;;8.50;63.80;;;;;;4879319;29;20083;-77
2021/04/06 10:58:56;;;;;;;9.85;1.85;;;8.30;60.50;;;;;;4878977;29;20061;-76
2021/04/06 11:01:43;;;;;;;8.75;2.40;;;8.20;59.50;;;;;;4841513;29;20054;-76
2021/04/06 11:04:16;;;;;;;11.40;2.28;;;8.60;60.80;;;;;;4878524;29;20060;-75
2021/04/06 11:37:38;;;;;;;16.70;3.22;;;9.10;62.10;;;;;;4722559;23;20047;-75
2021/04/06 11:43:50;;;;;;;19.40;2.95;;;9.60;57.50;;;;;;4864361;29;20487;-76
2021/04/06 11:47:15;;;;;;;17.88;3.40;;;9.40;52.50;;;;;;4831922;29;20452;-77
2021/04/06 11:50:07;;;;;;;11.77;3.22;;;9.60;57.40;;;;;;4785456;29;20114;-76
2021/04/06 11:52:47;;;;;;;13.70;2.92;;;9.20;57.80;;;;;;4794154;29;20050;-77
2021/04/06 11:55:14;;;;;;;14.88;3.22;;;8.40;56.50;;;;;;4807850;29;20057;-77
2021/04/06 11:57:40;;;;;;;19.77;3.33;;;7.90;56.10;;;;;;4807538;29;20062;-77
2021/04/06 12:00:07;;;;;;;16.35;3.00;;;7.40;54.90;;;;;;4809813;29;20058;-77
2021/04/06 12:02:34;;;;;;;25.13;3.95;;;7.20;59.60;;;;;;4808345;29;20070;-76
2021/04/06 12:05:01;;;;;;;15.95;3.88;;;7.00;63.90;;;;;;4807937;29;20054;-76
2021/04/06 12:07:27;;;;;;;21.10;3.20;;;6.70;66.40;;;;;;4807748;29;20051;-76
2021/04/06 12:09:53;;;;;;;16.58;3.40;;;6.10;69.50;;;;;;4807686;29;20062;-76
2021/04/06 12:12:21;;;;;;;21.17;4.35;;;6.30;71.10;;;;;;4807477;29;20059;-76
2021/04/06 12:14:49;;;;;;;20.00;3.35;;;6.10;71.10;;;;;;4807724;29;20054;-76
2021/04/06 12:17:15;;;;;;;13.88;2.95;;;6.00;71.30;;;;;;4807254;29;20058;-75
2021/04/06 12:19:41;;;;;;;13.18;4.35;;;6.20;70.40;;;;;;4820286;29;20057;-75
2021/04/06 12:22:08;;;;;;;18.88;3.58;;;6.50;69.00;;;;;;4862118;29;20053;-76
2021/04/06 12:24:34;;;;;;;18.13;2.80;;;6.60;68.00;;;;;;4863681;29;20057;-75
2021/04/06 12:27:01;;;;;;;15.95;3.22;;;6.60;66.40;;;;;;4917036;29;20059;-76
2021/04/06 12:29:28;;;;;;;13.50;2.97;;;6.70;67.00;;;;;;4939417;29;20681;-76
2021/04/06 12:31:54;;;;;;;15.00;3.28;;;6.80;66.60;;;;;;4939123;29;20055;-75
2021/04/06 12:34:20;;;;;;;18.50;3.13;;;6.80;65.70;;;;;;4949676;28;20071;-77
2021/04/06 12:36:46;;;;;;;16.33;2.92;;;7.60;65.50;;;;;;4939127;29;20086;-77
2021/04/06 12:39:12;;;;;;;21.33;4.38;;;8.60;62.50;;;;;;4939605;29;20051;-75
2021/04/06 12:41:39;;;;;;;19.08;3.60;;;9.40;59.20;;;;;;4939783;29;20055;-76
2021/04/06 12:44:06;;;;;;;17.23;3.05;;;10.20;56.80;;;;;;4939128;29;20051;-75
2021/04/06 12:46:32;;;;;;;19.33;3.05;;;9.70;54.10;;;;;;4939346;29;20429;-75
2021/04/06 12:48:58;;;;;;;12.45;2.90;;;10.20;53.70;;;;;;4939149;29;20078;-76
2021/04/06 12:51:24;;;;;;;14.98;3.30;;;11.40;50.30;;;;;;4939525;29;20051;-76
2021/04/06 12:53:52;;;;;;;8.38;2.13;;;11.90;46.40;;;;;;4939561;29;20051;-76
2021/04/06 12:56:18;;;;;;;5.45;1.83;;;11.70;42.40;;;;;;4939551;29;20055;-76
2021/04/06 12:58:44;;;;;;;13.38;2.13;;;11.80;43.00;;;;;;4938776;29;20043;-76
2021/04/06 13:01:13;;;;;;;17.90;2.95;;;12.80;43.70;;;;;;4939028;29;20055;-76
2021/04/06 13:03:39;;;;;;;18.15;2.28;;;11.20;42.10;;;;;;4922400;29;20075;-75
2021/04/06 13:06:06;;;;;;;9.20;1.83;;;10.20;44.70;;;;;;4938971;29;20059;-77
2021/04/06 13:08:32;;;;;;;12.35;2.08;;;9.20;43.40;;;;;;4938604;29;20051;-76
2021/04/06 13:10:58;;;;;;;14.80;3.33;;;9.00;46.60;;;;;;4922214;29;20048;-76
2021/04/06 13:13:25;;;;;;;12.90;2.50;;;9.20;46.40;;;;;;4938780;29;20465;-76
2021/04/06 13:15:52;;;;;;;9.63;2.70;;;9.40;46.10;;;;;;4938967;29;20040;-76
2021/04/06 13:18:18;;;;;;;13.50;3.17;;;10.10;47.40;;;;;;4947184;29;20055;-76
2021/04/06 13:20:45;;;;;;;29.02;3.40;;;10.80;46.90;;;;;;4938871;29;20335;-74
2021/04/06 13:23:11;;;;;;;18.83;3.10;;;12.00;44.00;;;;;;4938965;29;20054;-75
2021/04/06 13:25:38;;;;;;;14.60;3.53;;;10.80;44.10;;;;;;4938759;29;20051;-76
2021/04/06 13:28:05;;;;;;;14.98;3.67;;;10.20;46.60;;;;;;4937379;29;20056;-76
2021/04/06 13:30:31;;;;;;;92.22;5.78;;;9.70;49.20;;;;;;4921904;29;20040;-75
2021/04/06 13:32:57;;;;;;;19.00;2.95;;;8.60;52.00;;;;;;4938609;29;20059;-75
2021/04/06 13:35:24;;;;;;;13.07;3.40;;;8.00;54.30;;;;;;4939775;29;20066;-75
2021/04/06 13:37:52;;;;;;;12.60;3.00;;;7.60;56.00;;;;;;4921322;29;20140;-75
2021/04/06 13:40:20;;;;;;;15.65;3.13;;;7.30;57.90;;;;;;4937870;29;20138;-76
2021/04/06 13:42:48;;;;;;;19.63;3.53;;;7.10;59.20;;;;;;4938679;29;20051;-77
2021/04/06 13:45:23;;;;;;;9.93;2.55;;;7.10;58.10;;;;;;4939425;29;20056;-78
2021/04/06 13:47:50;;;;;;;14.27;2.60;;;7.30;56.50;;;;;;4937874;29;20060;-77
2021/04/06 13:50:18;;;;;;;12.60;3.53;;;7.60;54.00;;;;;;4937993;29;20361;-77